createdAt,value
2018-04-22T00:01:47.192Z,29.30
2018-04-22T00:02:47.146Z,29.80
2018-04-22T00:04:40.048Z,28.50
2018-04-22T00:05:40.024Z,29.00
2018-04-22T00:07:32.928Z,29.40
2018-04-22T00:08:32.892Z,30.20
2018-04-22T00:10:26.295Z,34.30
2018-04-22T00:11:26.262Z,34.60
2018-04-22T00:13:19.660Z,30.50
2018-04-22T00:14:19.637Z,35.30
2018-04-22T00:16:12.535Z,30.60
2018-04-22T00:17:12.529Z,30.40
2018-04-22T00:19:05.531Z,31.00
2018-04-22T00:20:05.380Z,35.10
2018-04-22T00:21:58.808Z,33.50
2018-04-22T00:22:58.751Z,32.20
2018-04-22T00:24:51.784Z,34.70
2018-04-22T00:25:51.616Z,32.00
2018-04-22T00:27:44.519Z,31.90
2018-04-22T00:28:44.489Z,32.20
2018-04-22T00:30:37.946Z,34.60
2018-04-22T00:31:37.881Z,31.30
2018-04-22T00:33:31.260Z,32.00
2018-04-22T00:34:31.227Z,33.00
2018-04-22T00:36:24.641Z,31.90
2018-04-22T00:37:24.609Z,32.40
2018-04-22T00:39:17.505Z,31.90
2018-04-22T00:40:17.484Z,32.10
2018-04-22T00:42:11.439Z,32.20
2018-04-22T00:43:10.847Z,32.00
2018-04-22T00:45:04.418Z,32.10
2018-04-22T00:46:04.199Z,31.30
2018-04-22T00:47:57.767Z,35.30
2018-04-22T00:48:57.569Z,31.80
2018-04-22T00:50:50.636Z,34.20
2018-04-22T00:51:50.487Z,31.80
2018-04-22T00:53:43.579Z,33.50
2018-04-22T00:54:43.323Z,34.80
2018-04-22T00:56:36.363Z,34.10
2018-04-22T00:57:36.204Z,33.30
2018-04-22T00:59:29.256Z,33.80
2018-04-22T01:00:29.074Z,34.50
2018-04-22T01:02:21.949Z,34.50
2018-04-22T01:03:21.921Z,33.30
2018-04-22T01:05:14.822Z,34.90
2018-04-22T01:06:14.804Z,35.30
2018-04-22T01:08:08.185Z,34.00
2018-04-22T01:09:08.167Z,36.20
2018-04-22T01:11:01.065Z,36.10
2018-04-22T01:12:01.038Z,36.00
2018-04-22T01:13:54.433Z,34.00
2018-04-22T01:14:54.396Z,34.70
2018-04-22T01:16:47.795Z,36.00
2018-04-22T01:17:47.768Z,35.80
2018-04-22T01:19:40.805Z,34.00
2018-04-22T01:20:40.666Z,37.40
2018-04-22T01:22:33.682Z,35.30
2018-04-22T01:23:33.520Z,36.30
2018-04-22T01:25:26.913Z,36.40
2018-04-22T01:26:26.886Z,38.60
2018-04-22T01:28:20.351Z,39.70
2018-04-22T01:29:20.245Z,37.90
2018-04-22T01:31:13.225Z,35.30
2018-04-22T01:32:13.120Z,37.00
2018-04-22T01:34:06.532Z,37.00
2018-04-22T01:35:06.483Z,39.20
2018-04-22T01:36:59.456Z,36.90
2018-04-22T01:37:59.398Z,38.20
2018-04-22T01:39:52.323Z,38.60
2018-04-22T01:40:52.227Z,41.90
2018-04-22T01:42:45.625Z,37.60
2018-04-22T01:43:45.596Z,41.80
2018-04-22T01:45:38.593Z,43.20
2018-04-22T01:46:38.470Z,39.30
2018-04-22T01:48:31.371Z,40.10
2018-04-22T01:49:31.337Z,40.60
2018-04-22T01:51:24.725Z,40.10
2018-04-22T01:52:24.699Z,41.00
2018-04-22T01:54:17.596Z,40.50
2018-04-22T01:55:17.566Z,39.70
2018-04-22T01:57:10.972Z,41.20
2018-04-22T01:58:10.929Z,42.80
2018-04-22T02:00:03.989Z,44.80
2018-04-22T02:01:03.796Z,42.30
2018-04-22T02:02:56.693Z,43.30
2018-04-22T02:03:56.675Z,42.10
2018-04-22T02:05:49.696Z,44.50
2018-04-22T02:06:50.101Z,46.10
2018-04-22T02:08:43.001Z,42.70
2018-04-22T02:09:42.412Z,42.30
2018-04-22T02:11:35.799Z,42.10
2018-04-22T02:12:35.769Z,44.30
2018-04-22T02:14:29.317Z,42.40
2018-04-22T02:15:29.154Z,41.10
2018-04-22T02:17:22.533Z,43.90
2018-04-22T02:18:22.497Z,42.40
2018-04-22T02:20:15.969Z,44.70
2018-04-22T02:21:15.866Z,49.10
2018-04-22T02:23:08.782Z,52.40
2018-04-22T02:24:09.477Z,46.90
2018-04-22T02:26:02.116Z,57.40
2018-04-22T02:27:02.116Z,54.70
2018-04-22T02:28:54.988Z,57.20
2018-04-22T02:29:54.988Z,58.60
2018-04-22T02:31:48.366Z,57.70
2018-04-22T02:32:48.331Z,58.70
2018-04-22T02:34:41.381Z,61.30
2018-04-22T02:35:41.203Z,65.80
2018-04-22T02:37:34.590Z,92.80
2018-04-22T02:38:35.129Z,85.60
2018-04-22T02:40:27.950Z,79.40
2018-04-22T02:41:27.912Z,71.60
2018-04-22T02:43:20.844Z,74.50
2018-04-22T02:44:20.795Z,70.60
2018-04-22T02:46:13.877Z,61.20
2018-04-22T02:47:13.654Z,68.70
2018-04-22T02:49:06.562Z,60.90
2018-04-22T02:50:06.551Z,54.70
2018-04-22T02:51:59.460Z,51.50
2018-04-22T02:52:59.432Z,52.00
2018-04-22T02:54:52.801Z,54.40
2018-04-22T02:55:52.774Z,55.60
2018-04-22T02:57:46.392Z,56.10
2018-04-22T02:58:45.628Z,55.40
2018-04-22T03:00:38.669Z,50.00
2018-04-22T03:01:38.526Z,51.90
2018-04-22T03:03:31.988Z,48.90
2018-04-22T03:04:31.868Z,53.80
2018-04-22T03:06:25.252Z,60.50
2018-04-22T03:07:25.228Z,60.60
2018-04-22T03:09:18.126Z,59.50
2018-04-22T03:10:18.094Z,61.50
2018-04-22T03:12:11.147Z,55.90
2018-04-22T03:13:10.975Z,53.10
2018-04-22T03:15:03.935Z,55.90
2018-04-22T03:16:03.834Z,53.00
2018-04-22T03:17:57.234Z,54.90
2018-04-22T03:18:57.191Z,52.90
2018-04-22T03:20:50.614Z,53.70
2018-04-22T03:21:50.572Z,49.30
2018-04-22T03:23:44.148Z,57.80
2018-04-22T03:24:43.420Z,52.50
2018-04-22T03:26:36.425Z,54.70
2018-04-22T03:27:36.321Z,59.90
2018-04-22T03:29:29.190Z,55.20
2018-04-22T03:30:29.154Z,57.50
2018-04-22T03:32:22.062Z,67.30
2018-04-22T03:33:22.037Z,64.30
2018-04-22T03:35:15.605Z,80.00
2018-04-22T03:36:15.405Z,76.30
2018-04-22T03:38:08.384Z,68.10
2018-04-22T03:39:08.366Z,68.90
2018-04-22T03:41:01.267Z,66.80
2018-04-22T03:42:01.820Z,68.80
2018-04-22T03:43:54.282Z,61.90
2018-04-22T03:44:54.111Z,59.40
2018-04-22T03:46:47.234Z,59.40
2018-04-22T03:47:47.001Z,52.90
2018-04-22T03:49:40.077Z,54.30
2018-04-22T03:50:39.847Z,47.20
2018-04-22T03:52:33.461Z,54.40
2018-04-22T03:53:33.209Z,61.80
2018-04-22T03:55:26.350Z,74.30
2018-04-22T03:56:26.090Z,73.80
2018-04-22T03:58:19.201Z,63.90
2018-04-22T03:59:18.970Z,58.70
2018-04-22T04:01:12.343Z,49.80
2018-04-22T04:02:12.307Z,49.70
2018-04-22T04:04:05.225Z,49.70
2018-04-22T04:05:05.196Z,50.20
2018-04-22T04:06:58.246Z,49.90
2018-04-22T04:07:58.060Z,52.20
2018-04-22T04:09:51.192Z,55.60
2018-04-22T04:10:50.967Z,51.10
2018-04-22T04:12:44.315Z,51.20
2018-04-22T04:13:44.458Z,57.20
2018-04-22T04:15:37.684Z,56.00
2018-04-22T04:16:37.653Z,53.70
2018-04-22T04:18:30.775Z,57.60
2018-04-22T04:19:30.512Z,56.20
2018-04-22T04:21:24.189Z,56.50
2018-04-22T04:22:23.376Z,56.30
2018-04-22T04:24:16.996Z,54.40
2018-04-22T04:25:16.746Z,50.30
2018-04-22T04:27:09.810Z,53.40
2018-04-22T04:28:09.620Z,50.50
2018-04-22T04:30:03.090Z,55.30
2018-04-22T04:31:03.544Z,50.70
2018-04-22T04:32:55.918Z,47.40
2018-04-22T04:33:55.838Z,51.10
2018-04-22T04:35:48.730Z,51.40
2018-04-22T04:36:48.703Z,47.00
2018-04-22T04:38:41.674Z,48.20
2018-04-22T04:39:41.579Z,48.30
2018-04-22T04:41:35.082Z,42.40
2018-04-22T04:42:34.956Z,46.40
2018-04-22T04:44:28.013Z,42.30
2018-04-22T04:45:28.373Z,44.30
2018-04-22T04:47:20.786Z,44.20
2018-04-22T04:48:20.676Z,46.80
2018-04-22T04:50:13.818Z,44.10
2018-04-22T04:51:13.555Z,46.20
2018-04-22T04:53:07.086Z,44.60
2018-04-22T04:54:06.939Z,46.50
2018-04-22T04:55:59.901Z,45.90
2018-04-22T04:56:59.795Z,45.30
2018-04-22T04:58:53.246Z,43.50
2018-04-22T04:59:52.646Z,44.50
2018-04-22T05:01:45.637Z,40.90
2018-04-22T05:02:45.519Z,42.80
2018-04-22T05:04:38.415Z,39.20
2018-04-22T05:05:38.385Z,45.70
2018-04-22T05:07:31.526Z,38.80
2018-04-22T05:08:31.274Z,36.90
2018-04-22T05:10:24.261Z,38.80
2018-04-22T05:11:24.127Z,38.80
2018-04-22T05:13:17.035Z,38.70
2018-04-22T05:14:17.028Z,38.00
2018-04-22T05:16:09.976Z,39.90
2018-04-22T05:17:09.887Z,36.90
2018-04-22T05:19:02.787Z,38.20
2018-04-22T05:20:02.767Z,37.00
2018-04-22T05:21:56.225Z,39.00
2018-04-22T05:22:55.632Z,37.30
2018-04-22T05:24:49.021Z,36.00
2018-04-22T05:25:48.992Z,36.90
2018-04-22T05:27:42.576Z,36.30
2018-04-22T05:28:42.366Z,34.40
2018-04-22T05:30:35.265Z,35.90
2018-04-22T05:31:35.238Z,33.30
2018-04-22T05:33:28.240Z,35.30
2018-04-22T05:34:28.097Z,33.50
2018-04-22T05:36:22.496Z,32.70
2018-04-22T05:37:22.477Z,31.60
2018-04-22T05:39:15.373Z,32.20
2018-04-22T05:40:15.341Z,34.90
2018-04-22T05:42:08.731Z,33.80
2018-04-22T05:43:08.700Z,35.60
2018-04-22T05:45:01.722Z,29.90
2018-04-22T05:46:01.587Z,31.10
2018-04-22T05:47:54.974Z,29.60
2018-04-22T05:48:54.960Z,33.30
2018-04-22T05:50:47.928Z,28.00
2018-04-22T05:51:47.821Z,29.40
2018-04-22T05:53:41.249Z,27.00
2018-04-22T05:54:41.206Z,27.70
2018-04-22T05:56:34.722Z,27.70
2018-04-22T05:57:34.569Z,26.90
2018-04-22T05:59:28.176Z,25.90
2018-04-22T06:00:27.945Z,26.30
2018-04-22T06:02:20.872Z,26.30
2018-04-22T06:03:20.838Z,25.80
2018-04-22T06:05:13.745Z,24.80
2018-04-22T06:06:13.720Z,25.40
2018-04-22T06:08:07.109Z,24.90
2018-04-22T06:09:07.087Z,25.70
2018-04-22T06:11:00.116Z,24.50
2018-04-22T06:11:59.995Z,24.50
2018-04-22T06:13:53.573Z,23.80
2018-04-22T06:14:53.372Z,23.60
2018-04-22T06:16:46.254Z,23.30
2018-04-22T06:17:46.253Z,22.80
2018-04-22T06:19:39.159Z,22.10
2018-04-22T06:20:39.191Z,24.80
2018-04-22T06:22:32.044Z,21.50
2018-04-22T06:23:32.026Z,22.10
2018-04-22T06:25:24.948Z,25.40
2018-04-22T06:26:24.897Z,25.30
2018-04-22T06:28:17.883Z,22.30
2018-04-22T06:29:17.807Z,21.20
2018-04-22T06:31:11.208Z,20.10
2018-04-22T06:32:11.167Z,19.60
2018-04-22T06:34:04.586Z,20.60
2018-04-22T06:35:04.572Z,19.70
2018-04-22T06:36:57.485Z,19.80
2018-04-22T06:37:57.453Z,21.80
2018-04-22T06:39:50.673Z,19.30
2018-04-22T06:40:50.388Z,19.10
2018-04-22T06:42:44.790Z,19.30
2018-04-22T06:43:44.759Z,21.60
2018-04-22T06:45:38.146Z,17.80
2018-04-22T06:46:38.136Z,18.60
2018-04-22T06:48:31.070Z,18.00
2018-04-22T06:49:31.039Z,19.00
2018-04-22T06:51:24.449Z,20.10
2018-04-22T06:52:24.644Z,18.60
2018-04-22T06:54:17.338Z,18.70
2018-04-22T06:55:17.333Z,18.80
2018-04-22T06:57:10.775Z,20.70
2018-04-22T06:58:10.731Z,20.40
2018-04-22T07:00:04.456Z,22.80
2018-04-22T07:01:04.112Z,19.30
2018-04-22T07:02:57.321Z,18.50
2018-04-22T07:03:57.032Z,18.90
2018-04-22T07:05:49.936Z,20.50
2018-04-22T07:06:49.951Z,18.60
2018-04-22T07:08:43.323Z,17.60
2018-04-22T07:09:43.294Z,18.00
2018-04-22T07:11:36.749Z,16.90
2018-04-22T07:12:36.673Z,18.20
2018-04-22T07:14:30.098Z,16.90
2018-04-22T07:15:30.170Z,18.50
2018-04-22T07:17:23.137Z,22.80
2018-04-22T07:18:22.991Z,22.80
2018-04-22T07:20:16.930Z,26.70
2018-04-22T07:21:16.350Z,24.70
2018-04-22T07:23:09.981Z,21.20
2018-04-22T07:24:09.793Z,19.40
2018-04-22T07:26:03.174Z,19.10
2018-04-22T07:27:03.140Z,17.80
2018-04-22T07:28:56.560Z,19.50
2018-04-22T07:29:56.539Z,16.60
2018-04-22T07:31:49.447Z,19.20
2018-04-22T07:32:49.447Z,23.20
2018-04-22T07:34:42.356Z,23.10
2018-04-22T07:35:42.333Z,20.20
2018-04-22T07:37:35.326Z,17.40
2018-04-22T07:38:35.252Z,16.80
2018-04-22T07:40:28.175Z,17.80
2018-04-22T07:41:28.145Z,15.80
2018-04-22T07:43:22.147Z,16.10
2018-04-22T07:44:22.117Z,15.60
2018-04-22T07:46:15.126Z,21.70
2018-04-22T07:47:15.022Z,19.30
2018-04-22T07:49:08.431Z,20.00
2018-04-22T07:50:08.401Z,17.50
2018-04-22T07:52:01.352Z,16.50
2018-04-22T07:53:01.303Z,17.00
2018-04-22T07:54:55.260Z,14.90
2018-04-22T07:55:54.238Z,15.30
2018-04-22T07:57:48.103Z,14.60
2018-04-22T07:58:47.647Z,14.70
2018-04-22T08:00:41.078Z,15.10
2018-04-22T08:01:41.058Z,17.40
2018-04-22T08:03:33.961Z,16.60
2018-04-22T08:04:33.973Z,17.10
2018-04-22T08:06:26.895Z,15.20
2018-04-22T08:07:26.865Z,13.90
2018-04-22T08:09:20.407Z,19.50
2018-04-22T08:10:20.246Z,18.30
2018-04-22T08:12:13.193Z,16.10
2018-04-22T08:13:13.155Z,15.60
2018-04-22T08:15:06.250Z,14.70
2018-04-22T08:16:06.039Z,16.90
2018-04-22T08:17:58.952Z,17.60
2018-04-22T08:18:58.931Z,19.90
2018-04-22T08:20:51.858Z,17.90
2018-04-22T08:21:51.845Z,20.30
2018-04-22T08:23:44.759Z,18.30
2018-04-22T08:24:44.750Z,16.40
2018-04-22T08:26:38.354Z,19.00
2018-04-22T08:27:38.169Z,18.50
2018-04-22T08:29:31.086Z,21.50
2018-04-22T08:30:31.058Z,22.90
2018-04-22T08:32:25.070Z,16.60
2018-04-22T08:33:24.449Z,19.80
2018-04-22T08:35:17.374Z,18.50
2018-04-22T08:36:17.330Z,17.70
2018-04-22T08:38:11.351Z,18.30
2018-04-22T08:39:10.284Z,19.30
2018-04-22T08:41:03.174Z,19.30
2018-04-22T08:42:03.158Z,15.80
2018-04-22T08:43:56.564Z,16.80
2018-04-22T08:44:56.543Z,17.00
2018-04-22T08:46:49.451Z,16.90
2018-04-22T08:47:49.437Z,15.20
2018-04-22T08:49:42.841Z,14.80
2018-04-22T08:50:42.879Z,14.60
2018-04-22T08:52:35.729Z,16.40
2018-04-22T08:53:35.712Z,15.20
2018-04-22T08:55:28.616Z,15.10
2018-04-22T08:56:28.597Z,13.80
2018-04-22T08:58:21.519Z,13.80
2018-04-22T08:59:21.496Z,13.70
2018-04-22T09:01:14.900Z,15.00
2018-04-22T09:02:14.876Z,13.00
2018-04-22T09:04:07.799Z,12.10
2018-04-22T09:05:07.773Z,12.80
2018-04-22T09:07:00.679Z,14.80
2018-04-22T09:08:00.672Z,12.30
2018-04-22T09:09:54.145Z,15.00
2018-04-22T09:10:53.596Z,14.10
2018-04-22T09:12:46.973Z,13.90
2018-04-22T09:13:46.948Z,14.40
2018-04-22T09:15:40.353Z,15.80
2018-04-22T09:16:40.333Z,15.20
2018-04-22T09:18:33.681Z,13.30
2018-04-22T09:19:33.227Z,13.60
2018-04-22T09:21:26.133Z,16.10
2018-04-22T09:22:26.112Z,15.20
2018-04-22T09:24:19.026Z,11.90
2018-04-22T09:25:19.010Z,14.20
2018-04-22T09:27:11.921Z,16.00
2018-04-22T09:28:11.913Z,13.70
2018-04-22T09:30:04.826Z,12.20
2018-04-22T09:31:04.803Z,14.90
2018-04-22T09:32:57.739Z,13.60
2018-04-22T09:33:57.695Z,12.60
2018-04-22T09:35:50.600Z,11.50
2018-04-22T09:36:50.578Z,12.60
2018-04-22T09:38:43.497Z,13.00
2018-04-22T09:39:43.471Z,15.90
2018-04-22T09:41:36.392Z,12.30
2018-04-22T09:42:36.370Z,15.10
2018-04-22T09:44:29.346Z,14.50
2018-04-22T09:45:29.285Z,13.00
2018-04-22T09:47:22.667Z,14.00
2018-04-22T09:48:22.644Z,12.10
2018-04-22T09:50:15.557Z,11.70
2018-04-22T09:51:15.548Z,11.40
2018-04-22T09:53:08.943Z,14.70
2018-04-22T09:54:08.917Z,13.40
2018-04-22T09:56:01.827Z,12.50
2018-04-22T09:57:01.817Z,11.00
2018-04-22T09:58:54.717Z,14.80
2018-04-22T09:59:54.701Z,15.20
2018-04-22T10:01:47.608Z,11.60
2018-04-22T10:02:47.602Z,12.80
2018-04-22T10:04:40.503Z,13.80
2018-04-22T10:05:40.481Z,14.50
2018-04-22T10:07:33.902Z,17.20
2018-04-22T10:08:33.867Z,16.00
2018-04-22T10:10:27.288Z,14.90
2018-04-22T10:11:27.259Z,13.80
2018-04-22T10:13:20.159Z,11.60
2018-04-22T10:14:20.140Z,12.90
2018-04-22T10:16:13.617Z,12.20
2018-04-22T10:17:13.033Z,9.80
2018-04-22T10:19:05.944Z,13.60
2018-04-22T10:20:05.924Z,11.40
2018-04-22T10:21:58.946Z,12.20
2018-04-22T10:22:58.854Z,13.90
2018-04-22T10:24:52.273Z,10.90
2018-04-22T10:25:52.247Z,11.60
2018-04-22T10:27:45.165Z,10.40
2018-04-22T10:28:45.134Z,12.50
2018-04-22T10:30:38.532Z,12.10
2018-04-22T10:31:38.513Z,13.30
2018-04-22T10:33:31.422Z,12.10
2018-04-22T10:34:31.406Z,9.40
2018-04-22T10:36:24.808Z,11.30
2018-04-22T10:37:24.786Z,12.90
2018-04-22T10:39:17.701Z,12.60
2018-04-22T10:40:17.681Z,14.30
2018-04-22T10:42:10.592Z,12.50
2018-04-22T10:43:10.576Z,12.50
2018-04-22T10:45:03.981Z,12.40
2018-04-22T10:46:03.972Z,12.00
2018-04-22T10:47:56.869Z,15.70
2018-04-22T10:48:56.850Z,14.00
2018-04-22T10:50:50.352Z,12.20
2018-04-22T10:51:50.247Z,11.70
2018-04-22T10:53:43.643Z,11.00
2018-04-22T10:54:43.621Z,11.20
2018-04-22T10:56:37.023Z,11.10
2018-04-22T10:57:37.006Z,11.00
2018-04-22T10:59:30.591Z,13.10
2018-04-22T11:00:29.896Z,14.80
2018-04-22T11:02:23.877Z,15.40
2018-04-22T11:03:23.297Z,17.50
2018-04-22T11:05:16.696Z,14.80
2018-04-22T11:06:16.666Z,13.60
2018-04-22T11:08:09.583Z,10.90
2018-04-22T11:09:09.561Z,10.90
2018-04-22T11:11:03.015Z,13.40
2018-04-22T11:12:02.955Z,13.90
2018-04-22T11:13:56.360Z,11.80
2018-04-22T11:14:56.347Z,11.60
2018-04-22T11:16:49.265Z,13.10
2018-04-22T11:17:49.252Z,12.30
2018-04-22T11:19:42.163Z,8.80
2018-04-22T11:20:42.148Z,9.60
2018-04-22T11:22:36.093Z,11.40
2018-04-22T11:23:35.539Z,12.90
2018-04-22T11:25:28.982Z,11.90
2018-04-22T11:26:28.930Z,12.10
2018-04-22T11:28:21.840Z,10.20
2018-04-22T11:29:21.829Z,10.80
2018-04-22T11:31:14.732Z,9.90
2018-04-22T11:32:14.727Z,9.10
2018-04-22T11:34:07.629Z,10.90
2018-04-22T11:35:07.615Z,8.40
2018-04-22T11:37:00.575Z,10.80
2018-04-22T11:38:00.512Z,11.60
2018-04-22T11:39:53.430Z,8.90
2018-04-22T11:40:53.418Z,7.30
2018-04-22T11:42:46.814Z,10.00
2018-04-22T11:43:46.806Z,9.60
2018-04-22T11:45:39.714Z,12.40
2018-04-22T11:46:39.704Z,9.90
2018-04-22T11:48:33.102Z,6.10
2018-04-22T11:49:33.089Z,8.30
2018-04-22T11:51:26.489Z,5.80
2018-04-22T11:52:26.477Z,8.30
2018-04-22T11:54:19.402Z,8.30
2018-04-22T11:55:19.373Z,8.20
2018-04-22T11:57:12.298Z,11.10
2018-04-22T11:58:12.283Z,8.70
2018-04-22T12:00:05.214Z,4.40
2018-04-22T12:01:05.175Z,6.10
2018-04-22T12:02:58.596Z,6.90
2018-04-22T12:03:58.573Z,8.70
2018-04-22T12:05:51.484Z,8.20
2018-04-22T12:06:51.452Z,11.40
2018-04-22T12:08:44.873Z,11.70
2018-04-22T12:09:44.844Z,10.60
2018-04-22T12:11:38.274Z,12.70
2018-04-22T12:12:38.241Z,13.40
2018-04-22T12:14:31.170Z,9.20
2018-04-22T12:15:31.136Z,10.50
2018-04-22T12:17:24.068Z,8.70
2018-04-22T12:18:24.028Z,8.40
2018-04-22T12:20:17.494Z,9.10
2018-04-22T12:21:17.419Z,8.30
2018-04-22T12:23:10.821Z,13.00
2018-04-22T12:24:10.803Z,10.80
2018-04-22T12:26:04.207Z,8.60
2018-04-22T12:27:04.198Z,9.30
2018-04-22T12:28:57.098Z,8.40
2018-04-22T12:29:57.077Z,9.30
2018-04-22T12:31:49.998Z,9.90
2018-04-22T12:32:49.990Z,8.50
2018-04-22T12:34:42.901Z,9.20
2018-04-22T12:35:42.868Z,6.80
2018-04-22T12:37:35.819Z,10.50
2018-04-22T12:38:35.763Z,9.60
2018-04-22T12:40:29.172Z,5.90
2018-04-22T12:41:29.177Z,7.90
2018-04-22T12:43:22.082Z,8.20
2018-04-22T12:44:22.050Z,6.50
2018-04-22T12:46:14.982Z,7.20
2018-04-22T12:47:14.952Z,9.30
2018-04-22T12:49:07.886Z,7.90
2018-04-22T12:50:07.882Z,7.00
2018-04-22T12:52:00.756Z,8.90
2018-04-22T12:53:00.741Z,7.70
2018-04-22T12:54:53.655Z,12.00
2018-04-22T12:55:53.635Z,6.80
2018-04-22T12:57:47.061Z,9.00
2018-04-22T12:58:47.025Z,9.50
2018-04-22T13:00:40.033Z,11.30
2018-04-22T13:01:40.003Z,8.50
2018-04-22T13:03:33.423Z,7.20
2018-04-22T13:04:33.390Z,6.30
2018-04-22T13:06:26.823Z,7.20
2018-04-22T13:07:26.804Z,8.20
2018-04-22T13:09:19.744Z,7.80
2018-04-22T13:10:19.704Z,8.60
2018-04-22T13:12:12.621Z,7.40
2018-04-22T13:13:12.605Z,8.10
2018-04-22T13:15:05.534Z,9.60
2018-04-22T13:16:05.512Z,8.00
2018-04-22T13:17:58.427Z,7.50
2018-04-22T13:18:58.408Z,7.90
2018-04-22T13:20:51.332Z,8.60
2018-04-22T13:21:51.329Z,9.00
2018-04-22T13:23:44.231Z,8.60
2018-04-22T13:24:44.212Z,8.70
2018-04-22T13:26:37.155Z,7.20
2018-04-22T13:27:37.107Z,6.20
2018-04-22T13:29:30.055Z,6.20
2018-04-22T13:30:30.006Z,8.10
2018-04-22T13:32:22.923Z,7.40
2018-04-22T13:33:22.903Z,6.50
2018-04-22T13:35:16.311Z,7.80
2018-04-22T13:36:16.302Z,10.10
2018-04-22T13:38:09.213Z,6.60
2018-04-22T13:39:09.191Z,7.10
2018-04-22T13:41:02.598Z,5.40
2018-04-22T13:42:02.581Z,7.60
2018-04-22T13:43:55.541Z,7.60
2018-04-22T13:44:55.484Z,10.20
2018-04-22T13:46:48.889Z,6.80
2018-04-22T13:47:48.879Z,8.50
2018-04-22T13:49:41.788Z,8.10
2018-04-22T13:50:41.772Z,6.70
2018-04-22T13:52:34.690Z,12.60
2018-04-22T13:53:34.670Z,5.40
2018-04-22T13:55:27.589Z,10.90
2018-04-22T13:56:27.574Z,12.20
2018-04-22T13:58:20.484Z,9.00
2018-04-22T13:59:20.472Z,12.60
2018-04-22T14:01:13.898Z,7.70
2018-04-22T14:02:13.873Z,5.90
2018-04-22T14:04:06.808Z,6.90
2018-04-22T14:05:06.775Z,8.10
2018-04-22T14:07:00.191Z,7.20
2018-04-22T14:08:00.167Z,9.30
2018-04-22T14:09:53.100Z,6.40
2018-04-22T14:10:53.069Z,6.50
2018-04-22T14:12:45.977Z,7.90
2018-04-22T14:13:46.030Z,6.20
2018-04-22T14:15:38.878Z,7.00
2018-04-22T14:16:38.860Z,9.10
2018-04-22T14:18:32.269Z,7.00
2018-04-22T14:19:32.248Z,6.90
2018-04-22T14:21:25.158Z,10.30
2018-04-22T14:22:25.139Z,9.80
2018-04-22T14:24:18.549Z,8.60
2018-04-22T14:25:18.540Z,7.00
2018-04-22T14:27:11.453Z,7.70
2018-04-22T14:28:11.430Z,9.90
2018-04-22T14:30:04.345Z,7.30
2018-04-22T14:31:04.325Z,7.20
2018-04-22T14:32:57.735Z,7.90
2018-04-22T14:33:57.712Z,7.40
2018-04-22T14:35:50.629Z,7.30
2018-04-22T14:36:50.613Z,7.50
2018-04-22T14:38:43.539Z,7.20
2018-04-22T14:39:43.527Z,7.00
2018-04-22T14:41:36.910Z,7.80
2018-04-22T14:42:36.894Z,19.10
2018-04-22T14:44:30.362Z,8.40
2018-04-22T14:45:29.788Z,10.30
2018-04-22T14:47:22.706Z,6.30
2018-04-22T14:48:22.686Z,8.50
2018-04-22T14:50:15.614Z,8.30
2018-04-22T14:51:15.589Z,8.00
2018-04-22T14:53:08.492Z,10.80
2018-04-22T14:54:08.482Z,13.10
2018-04-22T14:56:01.411Z,9.40
2018-04-22T14:57:01.388Z,13.60
2018-04-22T14:58:54.303Z,10.00
2018-04-22T14:59:54.289Z,11.80
2018-04-22T15:01:47.687Z,9.50
2018-04-22T15:02:47.666Z,6.10
2018-04-22T15:04:40.580Z,6.80
2018-04-22T15:05:40.560Z,6.40
2018-04-22T15:07:33.468Z,10.40
2018-04-22T15:08:33.452Z,9.00
2018-04-22T15:10:26.862Z,9.90
2018-04-22T15:11:26.841Z,6.40
2018-04-22T15:13:20.249Z,11.00
2018-04-22T15:14:20.228Z,12.20
2018-04-22T15:16:13.133Z,7.00
2018-04-22T15:17:13.116Z,12.30
2018-04-22T15:19:06.027Z,7.60
2018-04-22T15:20:06.012Z,8.30
2018-04-22T15:21:58.927Z,10.90
2018-04-22T15:22:58.906Z,8.20
2018-04-22T15:24:52.304Z,8.60
2018-04-22T15:25:52.293Z,7.30
2018-04-22T15:27:45.203Z,6.90
2018-04-22T15:28:45.186Z,7.40
2018-04-22T15:30:38.093Z,7.40
2018-04-22T15:31:38.073Z,7.60
2018-04-22T15:33:31.477Z,7.20
2018-04-22T15:34:31.465Z,7.00
2018-04-22T15:36:24.373Z,8.70
2018-04-22T15:37:24.355Z,8.50
2018-04-22T15:39:17.266Z,6.90
2018-04-22T15:40:17.247Z,7.60
2018-04-22T15:42:10.661Z,9.60
2018-04-22T15:43:10.635Z,7.90
2018-04-22T15:45:03.544Z,8.60
2018-04-22T15:46:03.527Z,6.40
2018-04-22T15:47:56.444Z,5.80
2018-04-22T15:48:56.425Z,7.20
2018-04-22T15:50:49.335Z,7.80
2018-04-22T15:51:49.317Z,7.00
2018-04-22T15:53:42.226Z,8.30
2018-04-22T15:54:42.207Z,8.00
2018-04-22T15:56:35.122Z,8.00
2018-04-22T15:57:35.102Z,9.70
2018-04-22T15:59:28.013Z,11.20
2018-04-22T16:00:27.993Z,9.10
2018-04-22T16:02:20.904Z,6.80
2018-04-22T16:03:20.886Z,9.20
2018-04-22T16:05:13.795Z,8.90
2018-04-22T16:06:13.775Z,10.30
2018-04-22T16:08:06.692Z,8.80
2018-04-22T16:09:06.670Z,9.40
2018-04-22T16:11:00.112Z,9.90
2018-04-22T16:12:00.085Z,9.10
2018-04-22T16:13:53.511Z,9.50
2018-04-22T16:14:53.467Z,10.80
2018-04-22T16:16:46.375Z,8.10
2018-04-22T16:17:46.363Z,9.70
2018-04-22T16:19:39.282Z,9.30
2018-04-22T16:20:39.257Z,10.40
2018-04-22T16:22:32.182Z,6.80
2018-04-22T16:23:32.155Z,7.90
2018-04-22T16:25:25.250Z,9.40
2018-04-22T16:26:25.065Z,9.70
2018-04-22T16:28:18.028Z,9.80
2018-04-22T16:29:17.938Z,8.80
2018-04-22T16:31:10.859Z,9.40
2018-04-22T16:32:10.832Z,9.30
2018-04-22T16:34:04.304Z,7.90
2018-04-22T16:35:04.210Z,9.00
2018-04-22T16:36:57.605Z,9.80
2018-04-22T16:37:57.593Z,8.70
2018-04-22T16:39:50.511Z,7.20
2018-04-22T16:40:50.491Z,6.70
2018-04-22T16:42:43.543Z,9.70
2018-04-22T16:43:43.370Z,9.60
2018-04-22T16:45:36.442Z,8.80
2018-04-22T16:46:36.279Z,7.20
2018-04-22T16:48:29.673Z,9.20
2018-04-22T16:49:29.665Z,9.60
2018-04-22T16:51:22.595Z,10.90
2018-04-22T16:52:22.582Z,15.00
2018-04-22T16:54:15.524Z,8.80
2018-04-22T16:55:15.458Z,8.70
2018-04-22T16:57:08.368Z,14.10
2018-04-22T16:58:08.366Z,11.40
2018-04-22T17:00:01.259Z,8.80
2018-04-22T17:01:01.245Z,12.00
2018-04-22T17:02:54.262Z,12.90
2018-04-22T17:03:54.137Z,9.80
2018-04-22T17:05:47.117Z,12.10
2018-04-22T17:06:47.031Z,10.00
2018-04-22T17:08:39.984Z,13.90
2018-04-22T17:09:39.913Z,10.40
2018-04-22T17:11:32.829Z,10.20
2018-04-22T17:12:32.806Z,10.30
2018-04-22T17:14:25.802Z,11.70
2018-04-22T17:15:25.691Z,12.20
2018-04-22T17:17:18.663Z,12.20
2018-04-22T17:18:18.582Z,11.60
2018-04-22T17:20:11.564Z,12.70
2018-04-22T17:21:11.484Z,10.10
2018-04-22T17:23:05.004Z,7.50
2018-04-22T17:24:04.867Z,11.30
2018-04-22T17:25:57.767Z,11.10
2018-04-22T17:26:57.753Z,13.20
2018-04-22T17:28:51.286Z,12.40
2018-04-22T17:29:51.143Z,13.10
2018-04-22T17:31:44.062Z,22.70
2018-04-22T17:32:44.038Z,18.20
2018-04-22T17:34:36.947Z,7.60
2018-04-22T17:35:36.921Z,11.50
2018-04-22T17:37:30.523Z,16.40
2018-04-22T17:38:30.528Z,21.90
2018-04-22T17:40:23.906Z,18.70
2018-04-22T17:41:23.887Z,17.20
2018-04-22T17:43:16.811Z,15.90
2018-04-22T17:44:16.775Z,14.10
2018-04-22T17:46:09.685Z,14.20
2018-04-22T17:47:09.661Z,12.00
2018-04-22T17:49:03.062Z,15.90
2018-04-22T17:50:03.037Z,11.20
2018-04-22T17:51:56.444Z,12.40
2018-04-22T17:52:56.447Z,11.40
2018-04-22T17:54:49.822Z,15.90
2018-04-22T17:55:49.803Z,12.10
2018-04-22T17:57:42.708Z,14.00
2018-04-22T17:58:42.689Z,18.60
2018-04-22T18:00:36.105Z,15.10
2018-04-22T18:01:36.090Z,14.70
2018-04-22T18:03:28.990Z,14.70
2018-04-22T18:04:28.974Z,13.60
2018-04-22T18:06:21.874Z,15.90
2018-04-22T18:07:21.857Z,12.50
2018-04-22T18:09:14.767Z,22.00
2018-04-22T18:10:14.747Z,18.30
2018-04-22T18:12:07.691Z,13.80
2018-04-22T18:13:07.634Z,13.50
2018-04-22T18:15:01.102Z,14.30
2018-04-22T18:16:00.518Z,14.90
2018-04-22T18:17:53.912Z,23.30
2018-04-22T18:18:53.895Z,19.70
2018-04-22T18:20:46.810Z,18.00
2018-04-22T18:21:46.796Z,17.80
2018-04-22T18:23:39.693Z,16.00
2018-04-22T18:24:39.671Z,16.30
2018-04-22T18:26:32.619Z,11.10
2018-04-22T18:27:32.593Z,11.00
2018-04-22T18:29:25.490Z,13.50
2018-04-22T18:30:25.467Z,13.90
2018-04-22T18:32:18.868Z,16.10
2018-04-22T18:33:18.848Z,15.50
2018-04-22T18:35:12.267Z,12.60
2018-04-22T18:36:12.246Z,12.40
2018-04-22T18:38:05.182Z,12.10
2018-04-22T18:39:05.158Z,16.60
2018-04-22T18:40:58.077Z,16.90
2018-04-22T18:41:58.052Z,14.30
2018-04-22T18:43:50.962Z,16.70